createdAt,value
2016-06-03T00:00:23.388Z,24.37
2016-06-03T00:01:23.453Z,24.39
2016-06-03T00:02:23.409Z,24.39
2016-06-03T00:03:23.427Z,24.4
2016-06-03T00:04:23.429Z,24.42
2016-06-03T00:05:23.431Z,24.34
2016-06-03T00:06:23.450Z,24.36
2016-06-03T00:07:23.469Z,24.36
2016-06-03T00:08:23.472Z,24.37
2016-06-03T00:09:23.489Z,24.37
2016-06-03T00:10:24.164Z,24.42
2016-06-03T00:11:23.510Z,24.4
2016-06-03T00:12:23.514Z,24.45
2016-06-03T00:13:23.516Z,24.33
2016-06-03T00:14:23.519Z,24.37
2016-06-03T00:15:23.553Z,24.46
2016-06-03T00:16:23.555Z,24.36
2016-06-03T00:17:23.558Z,24.33
2016-06-03T00:18:23.561Z,24.33
2016-06-03T00:19:23.580Z,24.34
2016-06-03T00:20:23.583Z,24.34
2016-06-03T00:21:23.443Z,24.4
2016-06-03T00:22:23.603Z,24.39
2016-06-03T00:23:23.621Z,24.34
2016-06-03T00:24:23.640Z,24.42
2016-06-03T00:25:24.470Z,24.39
2016-06-03T00:26:23.645Z,24.36
2016-06-03T00:27:23.663Z,24.33
2016-06-03T00:28:23.665Z,24.33
2016-06-03T00:29:23.669Z,24.42
2016-06-03T00:30:23.687Z,24.39
2016-06-03T00:31:23.704Z,24.34
2016-06-03T00:32:23.708Z,24.36
2016-06-03T00:33:23.710Z,24.42
2016-06-03T00:34:23.745Z,24.33
2016-06-03T00:35:23.731Z,24.36
2016-06-03T00:36:23.750Z,24.37
2016-06-03T00:37:23.768Z,24.33
2016-06-03T00:38:23.755Z,24.4
2016-06-03T00:39:23.773Z,24.36
2016-06-03T00:40:24.464Z,24.33
2016-06-03T00:41:23.826Z,24.34
2016-06-03T00:42:23.814Z,24.3
2016-06-03T00:43:23.816Z,24.29
2016-06-03T00:44:23.818Z,24.32
2016-06-03T00:45:23.821Z,24.3
2016-06-03T00:46:23.839Z,24.32
2016-06-03T00:47:23.857Z,24.33
2016-06-03T00:48:23.705Z,24.3
2016-06-03T00:49:23.863Z,24.39
2016-06-03T00:50:23.881Z,24.3
2016-06-03T00:51:23.899Z,24.3
2016-06-03T00:52:23.918Z,24.3
2016-06-03T00:53:23.921Z,24.29
2016-06-03T00:54:23.923Z,24.32
2016-06-03T00:55:24.238Z,24.3
2016-06-03T00:56:23.944Z,24.3
2016-06-03T00:57:23.947Z,24.3
2016-06-03T00:58:23.966Z,24.32
2016-06-03T00:59:23.968Z,24.32
2016-06-03T01:00:23.986Z,24.32
2016-06-03T01:01:24.004Z,24.3
2016-06-03T01:02:24.007Z,24.34
2016-06-03T01:03:24.010Z,24.27
2016-06-03T01:04:24.012Z,24.24
2016-06-03T01:05:24.046Z,24.29
2016-06-03T01:06:24.049Z,24.32
2016-06-03T01:07:24.068Z,24.34
2016-06-03T01:08:24.071Z,24.32
2016-06-03T01:09:24.073Z,24.29
2016-06-03T01:10:24.060Z,24.32
2016-06-03T01:11:24.094Z,24.26
2016-06-03T01:12:24.112Z,24.32
2016-06-03T01:13:24.114Z,24.33
2016-06-03T01:14:24.117Z,24.27
2016-06-03T01:15:24.136Z,24.32
2016-06-03T01:16:24.139Z,24.26
2016-06-03T01:17:24.141Z,24.22
2016-06-03T01:18:24.160Z,24.3
2016-06-03T01:19:24.163Z,24.3
2016-06-03T01:20:24.024Z,24.27
2016-06-03T01:21:24.183Z,24.24
2016-06-03T01:22:24.202Z,24.24
2016-06-03T01:23:24.205Z,24.29
2016-06-03T01:24:24.222Z,24.29
2016-06-03T01:25:24.116Z,24.27
2016-06-03T01:26:24.244Z,24.3
2016-06-03T01:27:24.262Z,24.24
2016-06-03T01:28:24.265Z,24.18
2016-06-03T01:29:24.267Z,24.3
2016-06-03T01:30:24.129Z,24.24
2016-06-03T01:31:24.288Z,24.26
2016-06-03T01:32:24.291Z,24.29
2016-06-03T01:33:24.309Z,24.27
2016-06-03T01:34:24.312Z,24.27
2016-06-03T01:35:24.331Z,24.24
2016-06-03T01:36:24.333Z,24.24
2016-06-03T01:37:24.351Z,24.24
2016-06-03T01:38:24.354Z,24.24
2016-06-03T01:39:24.372Z,24.29
2016-06-03T01:40:24.391Z,24.21
2016-06-03T01:41:24.378Z,24.24
2016-06-03T01:42:24.395Z,24.29
2016-06-03T01:43:24.414Z,24.17
2016-06-03T01:44:24.261Z,24.17
2016-06-03T01:45:24.420Z,24.22
2016-06-03T01:46:24.453Z,24.14
2016-06-03T01:47:24.441Z,24.24
2016-06-03T01:48:24.459Z,24.22
2016-06-03T01:49:24.461Z,24.18
2016-06-03T01:50:24.480Z,24.27
2016-06-03T01:51:24.483Z,24.3
2016-06-03T01:52:24.486Z,24.21
2016-06-03T01:53:24.505Z,24.24
2016-06-03T01:54:24.521Z,24.17
2016-06-03T01:55:25.368Z,24.17
2016-06-03T01:56:24.527Z,24.14
2016-06-03T01:57:24.546Z,24.26
2016-06-03T01:58:24.548Z,24.19
2016-06-03T01:59:24.566Z,24.22
2016-06-03T02:00:24.569Z,24.21
2016-06-03T02:01:24.572Z,24.3
2016-06-03T02:02:24.590Z,24.26
2016-06-03T02:03:24.610Z,24.22
2016-06-03T02:04:24.627Z,24.12
2016-06-03T02:05:24.629Z,24.27
2016-06-03T02:06:24.632Z,24.15
2016-06-03T02:07:24.651Z,24.14
2016-06-03T02:08:24.653Z,24.32
2016-06-03T02:09:24.657Z,24.19
2016-06-03T02:10:25.440Z,24.32
2016-06-03T02:11:24.693Z,24.29
2016-06-03T02:12:24.695Z,24.3
2016-06-03T02:13:24.714Z,24.27
2016-06-03T02:14:24.701Z,24.26
2016-06-03T02:15:24.720Z,24.15
2016-06-03T02:16:24.737Z,24.26
2016-06-03T02:17:24.740Z,24.24
2016-06-03T02:18:24.742Z,24.18
2016-06-03T02:19:24.761Z,24.27
2016-06-03T02:20:24.623Z,24.26
2016-06-03T02:21:24.782Z,24.26
2016-06-03T02:22:24.785Z,24.19
2016-06-03T02:23:24.788Z,24.27
2016-06-03T02:24:24.805Z,24.26
2016-06-03T02:25:24.886Z,24.29
2016-06-03T02:26:24.827Z,24.26
2016-06-03T02:27:24.829Z,24.26
2016-06-03T02:28:24.848Z,24.21
2016-06-03T02:29:24.851Z,24.24
2016-06-03T02:30:24.869Z,24.22
2016-06-03T02:31:24.732Z,24.11
2016-06-03T02:32:24.890Z,24.26
2016-06-03T02:33:24.893Z,24.26
2016-06-03T02:34:24.896Z,24.24
2016-06-03T02:35:24.758Z,24.27
2016-06-03T02:36:24.932Z,24.26
2016-06-03T02:37:24.935Z,24.17
2016-06-03T02:38:24.937Z,24.24
2016-06-03T02:39:24.971Z,24.17
2016-06-03T02:40:26.084Z,24.19
2016-06-03T02:41:24.820Z,24.21
2016-06-03T02:42:24.979Z,24.22
2016-06-03T02:43:24.982Z,24.17
2016-06-03T02:44:25.016Z,24.17
2016-06-03T02:45:25.003Z,24.14
2016-06-03T02:46:25.022Z,24.19
2016-06-03T02:47:25.040Z,24.18
2016-06-03T02:48:25.058Z,24.18
2016-06-03T02:49:25.044Z,24.15
2016-06-03T02:50:25.063Z,24.17
2016-06-03T02:51:25.066Z,24.19
2016-06-03T02:52:25.084Z,24.21
2016-06-03T02:53:24.930Z,24.17
2016-06-03T02:54:25.105Z,24.19
2016-06-03T02:55:25.592Z,24.21
2016-06-03T02:56:25.127Z,24.15
2016-06-03T02:57:25.129Z,24.15
2016-06-03T02:58:25.132Z,24.17
2016-06-03T02:59:25.150Z,24.24
2016-06-03T03:00:25.153Z,24.19
2016-06-03T03:01:25.155Z,24.19
2016-06-03T03:02:25.174Z,24.19
2016-06-03T03:03:25.176Z,24.19
2016-06-03T03:04:25.195Z,24.19
2016-06-03T03:05:25.041Z,24.27
2016-06-03T03:06:25.215Z,24.22
2016-06-03T03:07:25.219Z,24.21
2016-06-03T03:08:25.221Z,24.24
2016-06-03T03:09:25.254Z,24.24
2016-06-03T03:10:25.867Z,24.21
2016-06-03T03:11:25.260Z,24.22
2016-06-03T03:12:25.279Z,24.24
2016-06-03T03:13:25.282Z,24.21
2016-06-03T03:14:25.300Z,24.21
2016-06-03T03:15:25.318Z,24.21
2016-06-03T03:16:25.320Z,24.11
2016-06-03T03:17:25.323Z,24.17
2016-06-03T03:18:25.342Z,24.21
2016-06-03T03:19:25.344Z,24.14
2016-06-03T03:20:25.347Z,24.21
2016-06-03T03:21:25.365Z,24.11
2016-06-03T03:22:25.369Z,24.24
2016-06-03T03:23:25.387Z,24.18
2016-06-03T03:24:25.405Z,24.18
2016-06-03T03:25:25.439Z,24.18
2016-06-03T03:26:25.411Z,24.19
2016-06-03T03:27:25.428Z,24.19
2016-06-03T03:28:25.462Z,24.19
2016-06-03T03:29:25.449Z,24.18
2016-06-03T03:30:25.452Z,24.12
2016-06-03T03:31:25.454Z,24.21
2016-06-03T03:32:25.474Z,24.19
2016-06-03T03:33:25.476Z,24.17
2016-06-03T03:34:25.494Z,24.21
2016-06-03T03:35:25.496Z,24.22
2016-06-03T03:36:25.516Z,24.19
2016-06-03T03:37:25.517Z,24.18
2016-06-03T03:38:25.536Z,24.09
2016-06-03T03:39:25.554Z,24.21
2016-06-03T03:40:26.213Z,24.14
2016-06-03T03:41:25.576Z,24.12
2016-06-03T03:42:25.578Z,24.17
2016-06-03T03:43:25.596Z,24.26
2016-06-03T03:44:25.598Z,24.22
2016-06-03T03:45:25.618Z,24.17
2016-06-03T03:46:25.620Z,24.12
2016-06-03T03:47:25.639Z,24.22
2016-06-03T03:48:25.641Z,24.18
2016-06-03T03:49:25.644Z,24.21
2016-06-03T03:50:25.662Z,24.11
2016-06-03T03:51:25.681Z,24.12
2016-06-03T03:52:25.684Z,24.09
2016-06-03T03:53:25.702Z,24.09
2016-06-03T03:54:25.720Z,24.18
2016-06-03T03:55:25.722Z,24.22
2016-06-03T03:56:25.725Z,24.21
2016-06-03T03:57:25.727Z,24.21
2016-06-03T03:58:25.762Z,24.18
2016-06-03T03:59:25.764Z,24.22
2016-06-03T04:00:25.767Z,24.18
2016-06-03T04:01:25.786Z,24.12
2016-06-03T04:02:25.789Z,24.08
2016-06-03T04:03:25.807Z,24.14
2016-06-03T04:04:25.809Z,24.14
2016-06-03T04:05:25.655Z,24.15
2016-06-03T04:06:25.830Z,24.09
2016-06-03T04:07:25.832Z,24.19
2016-06-03T04:08:25.852Z,24.21
2016-06-03T04:09:25.870Z,24.09
2016-06-03T04:10:26.122Z,24.22
2016-06-03T04:11:25.890Z,24.09
2016-06-03T04:12:25.893Z,24.12
2016-06-03T04:13:25.896Z,24.15
2016-06-03T04:14:25.915Z,24.18
2016-06-03T04:15:25.932Z,24.12
2016-06-03T04:16:25.934Z,24.21
2016-06-03T04:17:25.953Z,24.15
2016-06-03T04:18:25.956Z,24.15
2016-06-03T04:19:25.959Z,24.22
2016-06-03T04:20:25.978Z,24.14
2016-06-03T04:21:25.980Z,24.17
2016-06-03T04:22:25.998Z,24.21
2016-06-03T04:23:26.017Z,24.11
2016-06-03T04:24:26.020Z,24.09
2016-06-03T04:25:26.038Z,24.15
2016-06-03T04:26:26.041Z,24.17
2016-06-03T04:27:26.058Z,24.19
2016-06-03T04:28:26.061Z,24.18
2016-06-03T04:29:25.924Z,24.18
2016-06-03T04:30:26.083Z,24.17
2016-06-03T04:31:26.085Z,24.21
2016-06-03T04:32:26.103Z,24.18
2016-06-03T04:33:26.122Z,24.11
2016-06-03T04:34:26.125Z,24.09
2016-06-03T04:35:26.127Z,24.11
2016-06-03T04:36:26.161Z,24.11
2016-06-03T04:37:25.991Z,24.12
2016-06-03T04:38:26.166Z,24.17
2016-06-03T04:39:26.184Z,24.11
2016-06-03T04:40:27.204Z,24.12
2016-06-03T04:41:26.049Z,24.18
2016-06-03T04:42:26.209Z,24.17
2016-06-03T04:43:26.211Z,24.18
2016-06-03T04:44:26.229Z,24.17
2016-06-03T04:45:26.248Z,24.17
2016-06-03T04:46:26.234Z,24.15
2016-06-03T04:47:26.269Z,24.12
2016-06-03T04:48:26.271Z,24.21
2016-06-03T04:49:26.289Z,24.19
2016-06-03T04:50:26.292Z,24.12
2016-06-03T04:51:26.326Z,24.21
2016-06-03T04:52:26.329Z,24.14
2016-06-03T04:53:26.316Z,24.11
2016-06-03T04:54:26.334Z,24.12
2016-06-03T04:55:26.369Z,24.18
2016-06-03T04:56:26.356Z,24.18
2016-06-03T04:57:26.358Z,24.18
2016-06-03T04:58:26.377Z,24.11
2016-06-03T04:59:26.380Z,24.18
2016-06-03T05:00:26.397Z,24.24
2016-06-03T05:01:26.415Z,24.19
2016-06-03T05:02:26.419Z,24.19
2016-06-03T05:03:26.421Z,24.17
2016-06-03T05:04:26.439Z,24.17
2016-06-03T05:05:26.457Z,24.11
2016-06-03T05:06:26.460Z,24.22
2016-06-03T05:07:26.479Z,24.21
2016-06-03T05:08:26.482Z,24.09
2016-06-03T05:09:26.484Z,24.18
2016-06-03T05:10:26.830Z,24.17
2016-06-03T05:11:26.505Z,24.18
2016-06-03T05:12:26.540Z,24.12
2016-06-03T05:13:26.526Z,24.14
2016-06-03T05:14:26.545Z,24.18
2016-06-03T05:15:26.563Z,24.12
2016-06-03T05:16:26.565Z,24.15
2016-06-03T05:17:26.583Z,24.21
2016-06-03T05:18:26.586Z,24.22
2016-06-03T05:19:26.604Z,24.12
2016-06-03T05:20:26.607Z,24.17
2016-06-03T05:21:26.609Z,24.17
2016-06-03T05:22:26.628Z,24.14
2016-06-03T05:23:26.631Z,24.15
2016-06-03T05:24:26.650Z,24.24
2016-06-03T05:25:26.824Z,24.24
2016-06-03T05:26:26.670Z,24.22
2016-06-03T05:27:26.689Z,24.17
2016-06-03T05:28:26.692Z,24.17
2016-06-03T05:29:26.694Z,24.22
2016-06-03T05:30:26.713Z,24.22
2016-06-03T05:31:26.716Z,24.22
2016-06-03T05:32:26.734Z,24.26
2016-06-03T05:33:26.766Z,24.24
2016-06-03T05:34:26.754Z,24.21
2016-06-03T05:35:26.616Z,24.18
2016-06-03T05:36:26.619Z,24.17
2016-06-03T05:37:26.809Z,24.22
2016-06-03T05:38:26.796Z,24.17
2016-06-03T05:39:26.799Z,24.17
2016-06-03T05:40:28.599Z,24.17
2016-06-03T05:41:26.835Z,24.15
2016-06-03T05:42:26.838Z,24.19
2016-06-03T05:43:26.841Z,24.24
2016-06-03T05:44:26.860Z,24.19
2016-06-03T05:45:26.878Z,24.17
2016-06-03T05:46:26.881Z,24.17
2016-06-03T05:47:26.946Z,24.19
2016-06-03T05:48:26.746Z,24.26
2016-06-03T05:49:26.951Z,24.18
2016-06-03T05:50:26.923Z,24.15
2016-06-03T05:51:26.941Z,24.18
2016-06-03T05:52:26.943Z,24.12
2016-06-03T05:53:26.961Z,24.18
2016-06-03T05:54:26.964Z,24.21
2016-06-03T05:55:28.014Z,24.22
2016-06-03T05:56:26.985Z,24.19
2016-06-03T05:57:27.003Z,24.18
2016-06-03T05:58:26.850Z,24.18
2016-06-03T05:59:27.009Z,24.12
2016-06-03T06:00:27.027Z,24.17
2016-06-03T06:01:27.046Z,24.18
2016-06-03T06:02:27.049Z,24.18
2016-06-03T06:03:27.067Z,24.17
2016-06-03T06:04:27.069Z,24.22
2016-06-03T06:05:27.072Z,24.22
2016-06-03T06:06:27.091Z,24.22
2016-06-03T06:07:27.094Z,24.21
2016-06-03T06:08:27.111Z,24.3
2016-06-03T06:09:27.114Z,24.19
2016-06-03T06:10:27.757Z,24.19
2016-06-03T06:11:27.136Z,24.14
2016-06-03T06:12:27.168Z,24.26
2016-06-03T06:13:27.156Z,24.27
2016-06-03T06:14:27.174Z,24.24
2016-06-03T06:15:27.193Z,24.21
2016-06-03T06:16:27.039Z,24.15
2016-06-03T06:17:27.198Z,24.24
2016-06-03T06:18:27.217Z,24.22
2016-06-03T06:19:27.235Z,24.17
2016-06-03T06:20:27.237Z,24.22
2016-06-03T06:21:27.256Z,24.27
2016-06-03T06:22:27.259Z,24.29
2016-06-03T06:23:27.262Z,24.29
2016-06-03T06:24:27.279Z,24.33
2016-06-03T06:25:27.157Z,24.32
2016-06-03T06:26:27.301Z,24.32
2016-06-03T06:27:27.304Z,24.3
2016-06-03T06:28:27.336Z,24.3
2016-06-03T06:29:27.199Z,24.27
2016-06-03T06:30:27.342Z,24.36
2016-06-03T06:31:27.361Z,24.32
2016-06-03T06:32:27.379Z,24.36
2016-06-03T06:33:27.382Z,24.36
2016-06-03T06:34:27.385Z,24.39
2016-06-03T06:35:27.403Z,24.36
2016-06-03T06:36:27.405Z,24.37
2016-06-03T06:37:27.268Z,24.4
2016-06-03T06:38:27.427Z,24.42
2016-06-03T06:39:27.444Z,24.42
2016-06-03T06:40:27.480Z,24.46
2016-06-03T06:41:27.482Z,24.42
2016-06-03T06:42:27.484Z,24.42
2016-06-03T06:43:27.487Z,24.48
2016-06-03T06:44:27.490Z,24.51
2016-06-03T06:45:27.523Z,24.55
2016-06-03T06:46:27.526Z,24.45
2016-06-03T06:47:27.850Z,24.52
2016-06-03T06:48:27.583Z,24.45
2016-06-03T06:49:27.472Z,24.51
2016-06-03T06:50:27.674Z,24.48
2016-06-03T06:51:27.704Z,24.54
2016-06-03T06:52:27.735Z,24.56
2016-06-03T06:53:27.747Z,24.55
2016-06-03T06:54:27.759Z,24.59
2016-06-03T06:55:27.820Z,24.51
2016-06-03T06:56:27.801Z,24.49
2016-06-03T06:57:27.823Z,24.52
2016-06-03T06:58:27.829Z,24.56
2016-06-03T06:59:27.851Z,24.55
2016-06-03T07:00:27.873Z,24.49
2016-06-03T07:01:27.879Z,24.51
2016-06-03T07:02:27.883Z,24.59
2016-06-03T07:03:27.903Z,24.55
2016-06-03T07:04:27.922Z,24.59
2016-06-03T07:05:27.926Z,24.49
2016-06-03T07:06:27.930Z,24.59
2016-06-03T07:07:27.964Z,24.52
2016-06-03T07:08:27.952Z,24.54
2016-06-03T07:09:27.972Z,24.56
2016-06-03T07:10:27.990Z,24.56
2016-06-03T07:11:27.994Z,24.56
2016-06-03T07:12:28.012Z,24.59
2016-06-03T07:13:27.999Z,24.56
2016-06-03T07:14:28.034Z,24.61
2016-06-03T07:15:28.036Z,24.58
2016-06-03T07:16:28.054Z,24.63
2016-06-03T07:17:28.056Z,24.58
2016-06-03T07:18:28.075Z,24.71
2016-06-03T07:19:28.078Z,24.63
2016-06-03T07:20:28.096Z,24.55
2016-06-03T07:21:28.099Z,24.55
2016-06-03T07:22:28.102Z,24.54
2016-06-03T07:23:28.105Z,24.39
2016-06-03T07:24:28.122Z,24.42
2016-06-03T07:25:28.142Z,24.33
2016-06-03T07:26:28.159Z,24.32
2016-06-03T07:27:28.162Z,24.32
2016-06-03T07:28:28.180Z,24.33
2016-06-03T07:29:28.183Z,24.32
2016-06-03T07:30:28.202Z,24.3
2016-06-03T07:31:28.220Z,24.3
2016-06-03T07:32:28.207Z,24.32
2016-06-03T07:33:28.225Z,24.3
2016-06-03T07:34:28.243Z,24.34
2016-06-03T07:35:28.246Z,24.39
2016-06-03T07:36:28.265Z,24.39
2016-06-03T07:37:28.252Z,24.48
2016-06-03T07:38:28.270Z,24.37
2016-06-03T07:39:28.288Z,24.52
2016-06-03T07:40:28.307Z,24.42
2016-06-03T07:41:28.310Z,24.37
2016-06-03T07:42:28.312Z,24.34
2016-06-03T07:43:28.329Z,24.29
2016-06-03T07:44:28.332Z,24.29
2016-06-03T07:45:28.351Z,24.39
2016-06-03T07:46:28.370Z,24.39
2016-06-03T07:47:28.528Z,24.51
2016-06-03T07:48:28.375Z,24.46
2016-06-03T07:49:28.393Z,24.48
2016-06-03T07:50:28.411Z,24.45
2016-06-03T07:51:28.414Z,24.54
2016-06-03T07:52:28.417Z,24.4
2016-06-03T07:53:28.435Z,24.54
2016-06-03T07:54:28.453Z,24.45
2016-06-03T07:55:29.581Z,24.45
2016-06-03T07:56:28.475Z,24.42
2016-06-03T07:57:28.477Z,24.45
2016-06-03T07:58:28.480Z,24.54
2016-06-03T07:59:28.513Z,24.54
2016-06-03T08:00:28.516Z,24.56
2016-06-03T08:01:28.519Z,24.58
2016-06-03T08:02:28.521Z,24.7
2016-06-03T08:03:28.541Z,24.71
2016-06-03T08:04:28.543Z,24.74
2016-06-03T08:05:28.561Z,24.7
2016-06-03T08:06:28.563Z,24.69
2016-06-03T08:07:28.582Z,24.67
2016-06-03T08:08:28.585Z,24.74
2016-06-03T08:09:28.603Z,24.77
2016-06-03T08:10:28.606Z,24.58
2016-06-03T08:11:28.609Z,24.52
2016-06-03T08:12:28.643Z,24.55
2016-06-03T08:13:28.645Z,24.59
2016-06-03T08:14:28.663Z,24.58
2016-06-03T08:15:28.682Z,24.61
2016-06-03T08:16:28.668Z,24.63
2016-06-03T08:17:28.687Z,24.77
2016-06-03T08:18:28.690Z,24.77
2016-06-03T08:19:28.708Z,24.69
2016-06-03T08:20:28.726Z,24.7
2016-06-03T08:21:28.729Z,24.71
2016-06-03T08:22:28.731Z,24.78
2016-06-03T08:23:28.750Z,24.75
2016-06-03T08:24:28.753Z,24.8
2016-06-03T08:25:29.428Z,24.8
2016-06-03T08:26:28.789Z,24.82
2016-06-03T08:27:28.777Z,24.71
2016-06-03T08:28:28.795Z,24.67
2016-06-03T08:29:28.813Z,24.63
2016-06-03T08:30:28.816Z,24.56
2016-06-03T08:31:28.834Z,24.55
2016-06-03T08:32:28.836Z,24.52
2016-06-03T08:33:28.855Z,24.52
2016-06-03T08:34:28.873Z,24.59
2016-06-03T08:35:28.892Z,24.56
2016-06-03T08:36:28.894Z,24.56
2016-06-03T08:37:28.897Z,24.64
2016-06-03T08:38:28.916Z,24.75
2016-06-03T08:39:28.918Z,24.64
2016-06-03T08:40:29.390Z,24.66
2016-06-03T08:41:28.782Z,24.74
2016-06-03T08:42:28.973Z,24.71
2016-06-03T08:43:28.960Z,24.77
2016-06-03T08:44:28.822Z,24.69
2016-06-03T08:45:28.982Z,24.69
2016-06-03T08:46:28.999Z,24.58
2016-06-03T08:47:29.048Z,24.55
2016-06-03T08:48:28.849Z,24.52
2016-06-03T08:49:29.039Z,24.71
2016-06-03T08:50:29.026Z,24.71
2016-06-03T08:51:29.045Z,24.61
2016-06-03T08:52:29.047Z,24.77
2016-06-03T08:53:29.080Z,24.74
2016-06-03T08:54:29.084Z,24.61
2016-06-03T08:55:28.945Z,24.66
2016-06-03T08:56:29.089Z,24.74
2016-06-03T08:57:29.108Z,24.7
2016-06-03T08:58:29.110Z,24.74
2016-06-03T08:59:28.988Z,24.8
2016-06-03T09:00:29.194Z,24.86
2016-06-03T09:01:29.164Z,24.8
2016-06-03T09:02:29.230Z,24.77
2016-06-03T09:03:29.186Z,24.85
2016-06-03T09:04:29.189Z,24.89
2016-06-03T09:05:29.192Z,24.83
2016-06-03T09:06:29.210Z,24.87
2016-06-03T09:07:29.243Z,24.8
2016-06-03T09:08:29.215Z,24.86
2016-06-03T09:09:29.233Z,24.89
2016-06-03T09:10:29.471Z,24.87
2016-06-03T09:11:29.270Z,24.77
2016-06-03T09:12:29.273Z,24.83
2016-06-03T09:13:29.291Z,24.97
2016-06-03T09:14:29.294Z,24.94
2016-06-03T09:15:29.296Z,24.92
2016-06-03T09:16:29.330Z,24.92
2016-06-03T09:17:29.333Z,24.9
2016-06-03T09:18:29.368Z,25.07
2016-06-03T09:19:29.370Z,25.01
2016-06-03T09:20:29.373Z,25.01
2016-06-03T09:21:29.359Z,25.12
2016-06-03T09:22:29.378Z,25.08
2016-06-03T09:23:29.381Z,25.05
2016-06-03T09:24:29.399Z,25
2016-06-03T09:25:29.261Z,25.09
2016-06-03T09:26:29.419Z,25.02
2016-06-03T09:27:29.439Z,25.02
2016-06-03T09:28:29.441Z,25.07
2016-06-03T09:29:29.443Z,25.09
2016-06-03T09:30:29.478Z,25.12
2016-06-03T09:31:29.480Z,24.92
2016-06-03T09:32:29.497Z,25.01
2016-06-03T09:33:29.532Z,25.02
2016-06-03T09:34:29.504Z,25.05
2016-06-03T09:35:29.538Z,25.04
2016-06-03T09:36:29.525Z,25.05
2016-06-03T09:37:29.543Z,25.02
2016-06-03T09:38:29.561Z,25.12
2016-06-03T09:39:29.564Z,25.07
2016-06-03T09:40:29.582Z,25.08
2016-06-03T09:41:29.585Z,25.08
2016-06-03T09:42:29.588Z,25.15
2016-06-03T09:43:29.622Z,25.09
2016-06-03T09:44:29.625Z,25.17
2016-06-03T09:45:29.627Z,25.22
2016-06-03T09:46:29.645Z,25.26
2016-06-03T09:47:29.649Z,25.19
2016-06-03T09:48:29.665Z,25.11
2016-06-03T09:49:29.669Z,25.15
2016-06-03T09:50:29.687Z,25.34
2016-06-03T09:51:29.690Z,25.33
2016-06-03T09:52:29.709Z,25.33
2016-06-03T09:53:29.711Z,25.39
2016-06-03T09:54:29.729Z,25.34
2016-06-03T09:55:29.904Z,25.37
2016-06-03T09:56:29.734Z,25.44
2016-06-03T09:57:29.769Z,25.37
2016-06-03T09:58:29.771Z,25.38
2016-06-03T09:59:29.774Z,25.44
2016-06-03T10:00:29.793Z,25.47
2016-06-03T10:01:29.795Z,25.47
2016-06-03T10:02:29.829Z,25.52
2016-06-03T10:03:29.831Z,25.47
2016-06-03T10:04:29.834Z,25.54
2016-06-03T10:05:29.852Z,25.69
2016-06-03T10:06:29.840Z,25.74
2016-06-03T10:07:29.874Z,25.69
2016-06-03T10:08:29.876Z,25.7
2016-06-03T10:09:29.895Z,25.76
2016-06-03T10:10:29.913Z,25.66
2016-06-03T10:11:29.916Z,25.67
2016-06-03T10:12:29.935Z,25.71
2016-06-03T10:13:29.937Z,25.67
2016-06-03T10:14:29.940Z,25.74
2016-06-03T10:15:29.957Z,25.75
2016-06-03T10:16:29.976Z,25.76
2016-06-03T10:17:29.979Z,25.78
2016-06-03T10:18:29.982Z,25.82
2016-06-03T10:19:29.999Z,25.81
2016-06-03T10:20:30.049Z,25.82
2016-06-03T10:21:30.021Z,25.88
2016-06-03T10:22:30.023Z,25.79
2016-06-03T10:23:30.042Z,25.88
2016-06-03T10:24:30.059Z,25.91
2016-06-03T10:25:30.078Z,25.86
2016-06-03T10:26:30.098Z,25.93
2016-06-03T10:27:30.100Z,25.93
2016-06-03T10:28:30.103Z,25.97
2016-06-03T10:29:30.105Z,26
2016-06-03T10:30:30.139Z,25.97
2016-06-03T10:31:30.126Z,25.99
2016-06-03T10:32:30.144Z,26
2016-06-03T10:33:30.162Z,25.94
2016-06-03T10:34:30.008Z,25.96
2016-06-03T10:35:30.183Z,25.97
2016-06-03T10:36:30.186Z,26.06
2016-06-03T10:37:30.204Z,26.04
2016-06-03T10:38:30.223Z,25.96
2016-06-03T10:39:30.225Z,25.94
2016-06-03T10:40:30.322Z,25.96
2016-06-03T10:41:30.262Z,25.84
2016-06-03T10:42:30.108Z,25.89
2016-06-03T10:43:30.268Z,25.94
2016-06-03T10:44:30.285Z,26.03
2016-06-03T10:45:30.288Z,26.04
2016-06-03T10:46:30.291Z,26.06
2016-06-03T10:47:30.310Z,26.09
2016-06-03T10:48:30.171Z,26.01
2016-06-03T10:49:30.346Z,25.94
2016-06-03T10:50:30.365Z,25.93
2016-06-03T10:51:30.368Z,25.94
2016-06-03T10:52:30.370Z,25.93
2016-06-03T10:53:30.387Z,25.91
2016-06-03T10:54:30.391Z,25.85
2016-06-03T10:55:30.800Z,25.93
2016-06-03T10:56:30.428Z,25.84
2016-06-03T10:57:30.446Z,25.85
2016-06-03T10:58:30.448Z,25.86
2016-06-03T10:59:30.467Z,25.94
2016-06-03T11:00:30.469Z,25.91
2016-06-03T11:01:30.472Z,25.91
2016-06-03T11:02:30.490Z,25.88
2016-06-03T11:03:30.509Z,25.91
2016-06-03T11:04:30.495Z,26
2016-06-03T11:05:30.514Z,26.06
2016-06-03T11:06:30.532Z,26.03
2016-06-03T11:07:30.550Z,25.99
2016-06-03T11:08:30.553Z,25.94
2016-06-03T11:09:30.572Z,25.93
2016-06-03T11:10:30.683Z,25.93
2016-06-03T11:11:30.577Z,25.96
2016-06-03T11:12:30.596Z,25.99
2016-06-03T11:13:30.598Z,25.84
2016-06-03T11:14:30.460Z,25.93
2016-06-03T11:15:30.634Z,25.91
2016-06-03T11:16:30.652Z,25.89
2016-06-03T11:17:30.655Z,25.93
2016-06-03T11:18:30.658Z,25.85
2016-06-03T11:19:30.677Z,25.88
2016-06-03T11:20:30.679Z,25.84
2016-06-03T11:21:30.698Z,25.93
2016-06-03T11:22:30.732Z,25.88
2016-06-03T11:23:30.718Z,25.93
2016-06-03T11:24:30.737Z,25.94
2016-06-03T11:25:30.598Z,25.93
2016-06-03T11:26:30.759Z,25.93
2016-06-03T11:27:30.762Z,25.93
2016-06-03T11:28:30.779Z,25.93
2016-06-03T11:29:30.798Z,25.94
2016-06-03T11:30:30.800Z,25.93
2016-06-03T11:31:30.818Z,25.93
2016-06-03T11:32:30.820Z,25.91
2016-06-03T11:33:30.823Z,25.85
2016-06-03T11:34:30.842Z,25.91
2016-06-03T11:35:30.861Z,25.89
2016-06-03T11:36:30.879Z,25.88
2016-06-03T11:37:30.881Z,25.89
2016-06-03T11:38:30.900Z,25.89
2016-06-03T11:39:30.919Z,25.91
2016-06-03T11:40:30.827Z,25.88
2016-06-03T11:41:30.924Z,25.88
2016-06-03T11:42:30.942Z,25.81
2016-06-03T11:43:30.944Z,25.88
2016-06-03T11:44:30.963Z,25.78
2016-06-03T11:45:30.965Z,25.85
2016-06-03T11:46:30.827Z,25.76
2016-06-03T11:47:30.986Z,25.84
2016-06-03T11:48:31.005Z,25.82
2016-06-03T11:49:31.024Z,25.81
2016-06-03T11:50:31.026Z,25.82
2016-06-03T11:51:31.060Z,25.81
2016-06-03T11:52:31.046Z,25.81
2016-06-03T11:53:31.065Z,25.82
2016-06-03T11:54:31.083Z,25.84
2016-06-03T11:55:31.086Z,25.76
2016-06-03T11:56:31.089Z,25.86
2016-06-03T11:57:31.092Z,25.82
2016-06-03T11:58:31.126Z,25.74
2016-06-03T11:59:31.128Z,25.7
2016-06-03T12:00:31.146Z,25.81
2016-06-03T12:01:31.149Z,25.79
2016-06-03T12:02:31.167Z,25.74
2016-06-03T12:03:31.170Z,25.78
2016-06-03T12:04:31.188Z,25.7
2016-06-03T12:05:31.207Z,25.75
2016-06-03T12:06:31.209Z,25.81
2016-06-03T12:07:31.227Z,25.78
2016-06-03T12:08:31.230Z,25.79
2016-06-03T12:09:31.233Z,25.78
2016-06-03T12:10:31.344Z,25.76
2016-06-03T12:11:31.817Z,25.74
2016-06-03T12:12:31.272Z,25.74
2016-06-03T12:13:31.291Z,25.75
2016-06-03T12:14:31.294Z,25.74
2016-06-03T12:15:31.311Z,25.76
2016-06-03T12:16:31.330Z,25.71
2016-06-03T12:17:31.332Z,25.76
2016-06-03T12:18:31.352Z,25.74
2016-06-03T12:19:31.354Z,25.69
2016-06-03T12:20:31.372Z,25.67
2016-06-03T12:21:31.374Z,25.76
2016-06-03T12:22:31.393Z,25.7
2016-06-03T12:23:31.396Z,25.75
2016-06-03T12:24:31.399Z,25.76
2016-06-03T12:25:31.588Z,25.69
2016-06-03T12:26:31.420Z,25.7
2016-06-03T12:27:31.437Z,25.75
2016-06-03T12:28:31.456Z,25.74
2016-06-03T12:29:31.490Z,25.67
2016-06-03T12:30:31.477Z,25.74
2016-06-03T12:31:31.495Z,25.74
2016-06-03T12:32:31.498Z,25.63
2016-06-03T12:33:31.517Z,25.74
2016-06-03T12:34:31.520Z,25.66
2016-06-03T12:35:31.522Z,25.64
2016-06-03T12:36:31.556Z,25.66
2016-06-03T12:37:31.558Z,25.74
2016-06-03T12:38:31.561Z,25.76
2016-06-03T12:39:31.564Z,25.69
2016-06-03T12:40:31.597Z,25.64
2016-06-03T12:41:31.600Z,25.74
2016-06-03T12:42:31.603Z,25.75
2016-06-03T12:43:31.622Z,25.71
2016-06-03T12:44:31.639Z,25.64
2016-06-03T12:45:31.642Z,25.78
2016-06-03T12:46:31.677Z,25.63
2016-06-03T12:47:31.663Z,25.74
2016-06-03T12:48:31.666Z,25.64
2016-06-03T12:49:31.716Z,25.64
2016-06-03T12:50:31.702Z,25.71
2016-06-03T12:51:31.721Z,25.7
2016-06-03T12:52:31.568Z,25.74
2016-06-03T12:53:31.742Z,25.69
2016-06-03T12:54:31.745Z,25.67